Time;durP1;ratioP1;P1;durP2;ratioP2;P2;SDS_P1;SDS_P2;PMS_P1;PMS_P2;Temp;Humidity;BMP_temperature;BMP_pressure;BME280_temperature;BME280_humidity;BME280_pressure;Samples;Min_cycle;Max_cycle;Signal;HPM_P1;HPM_P2
2022/03/30 00:03:23;;;;;;;31.77;17.05;;;8.10;99.90;;;;;;7245686;32;20158;-61
2022/03/30 00:07:28;;;;;;;29.10;18.15;;;8.00;99.90;;;;;;7240484;32;20388;-61
2022/03/30 00:11:30;;;;;;;32.17;17.87;;;8.10;99.90;;;;;;7239053;32;20151;-60
2022/03/30 00:15:31;;;;;;;33.60;18.05;;;8.00;99.90;;;;;;7240042;32;20279;-61
2022/03/30 00:19:33;;;;;;;30.75;18.00;;;8.00;99.90;;;;;;7237087;32;20211;-60
2022/03/30 00:23:35;;;;;;;29.02;17.05;;;8.00;99.90;;;;;;7244985;32;20104;-61
2022/03/30 00:27:38;;;;;;;28.62;17.48;;;7.90;99.90;;;;;;7243390;32;20101;-62
2022/03/30 00:31:40;;;;;;;30.08;18.27;;;7.90;99.90;;;;;;7227555;32;20228;-60
2022/03/30 00:35:42;;;;;;;33.70;18.02;;;7.90;99.90;;;;;;7242886;32;20122;-59
2022/03/30 00:39:43;;;;;;;36.20;18.08;;;7.90;99.90;;;;;;7242141;32;20456;-59
2022/03/30 00:43:45;;;;;;;29.55;16.83;;;7.90;99.90;;;;;;7242572;32;20704;-58
2022/03/30 00:47:48;;;;;;;33.33;17.60;;;7.80;99.90;;;;;;7241202;32;20331;-59
2022/03/30 00:51:49;;;;;;;34.42;17.87;;;7.90;99.90;;;;;;7235459;32;20322;-59
2022/03/30 00:55:53;;;;;;;35.05;17.73;;;7.80;99.90;;;;;;7236473;32;20130;-59
2022/03/30 00:59:56;;;;;;;36.88;18.00;;;7.80;99.90;;;;;;7241267;32;20112;-60
2022/03/30 01:03:58;;;;;;;30.77;17.00;;;7.80;99.90;;;;;;7236029;32;20093;-58
2022/03/30 01:07:59;;;;;;;35.33;17.27;;;7.80;99.90;;;;;;7235023;32;20556;-60
2022/03/30 01:12:02;;;;;;;37.58;17.55;;;7.80;99.90;;;;;;7236785;32;20265;-58
2022/03/30 01:16:04;;;;;;;35.42;17.37;;;7.80;99.90;;;;;;7239669;32;20536;-59
2022/03/30 01:20:07;;;;;;;36.97;17.33;;;7.70;99.90;;;;;;7237295;32;20171;-59
2022/03/30 01:24:11;;;;;;;33.90;18.27;;;7.70;99.90;;;;;;7242484;32;20552;-58
2022/03/30 01:28:12;;;;;;;36.63;18.37;;;7.70;99.90;;;;;;7239389;32;20195;-59
2022/03/30 01:32:27;;;;;;;33.55;17.52;;;7.70;99.90;;;;;;7230939;32;20918;-58
2022/03/30 01:36:29;;;;;;;31.37;16.98;;;7.60;99.90;;;;;;7232317;32;20230;-60
2022/03/30 01:40:30;;;;;;;31.35;16.48;;;7.60;99.90;;;;;;7234674;32;20105;-59
2022/03/30 01:44:32;;;;;;;33.55;17.67;;;7.50;99.90;;;;;;7235865;32;20192;-60
2022/03/30 01:48:34;;;;;;;30.42;16.62;;;7.50;99.90;;;;;;7231656;32;20242;-61
2022/03/30 01:52:36;;;;;;;36.28;17.73;;;7.40;99.90;;;;;;7231780;32;20294;-60
2022/03/30 01:56:38;;;;;;;34.65;18.67;;;7.30;99.90;;;;;;7234537;32;20208;-59
2022/03/30 02:00:40;;;;;;;39.53;18.25;;;7.30;99.90;;;;;;7240853;32;20100;-61
2022/03/30 02:04:42;;;;;;;31.10;17.75;;;7.20;99.90;;;;;;7245652;32;20100;-60
2022/03/30 02:08:44;;;;;;;33.70;18.48;;;7.20;99.90;;;;;;7244976;32;20131;-60
2022/03/30 02:12:45;;;;;;;33.78;19.10;;;7.10;99.90;;;;;;7242663;32;20464;-59
2022/03/30 02:16:47;;;;;;;35.28;18.08;;;7.00;99.90;;;;;;7244087;32;20097;-59
2022/03/30 02:20:50;;;;;;;33.25;17.30;;;7.00;99.90;;;;;;7245570;32;20177;-61
2022/03/30 02:24:52;;;;;;;38.30;19.17;;;6.90;99.90;;;;;;7243182;32;20106;-59
2022/03/30 02:28:54;;;;;;;37.08;18.17;;;7.00;99.90;;;;;;7238506;32;20536;-61
2022/03/30 02:32:57;;;;;;;34.58;17.67;;;6.90;99.90;;;;;;7242284;32;20151;-59
2022/03/30 02:37:00;;;;;;;31.33;17.70;;;6.80;99.90;;;;;;7239996;32;20192;-61
2022/03/30 02:41:03;;;;;;;35.38;19.33;;;6.80;99.90;;;;;;7244683;32;20516;-57
2022/03/30 02:45:05;;;;;;;35.65;18.37;;;6.70;99.90;;;;;;7245117;32;20108;-58
2022/03/30 02:49:07;;;;;;;37.08;18.27;;;6.60;99.90;;;;;;7244863;32;20123;-58
2022/03/30 02:53:08;;;;;;;41.30;19.45;;;6.60;99.90;;;;;;7242146;32;20130;-60
2022/03/30 02:57:11;;;;;;;42.38;19.27;;;6.50;99.90;;;;;;7240247;32;20735;-58
2022/03/30 03:01:13;;;;;;;37.83;18.35;;;6.50;99.90;;;;;;7240489;32;20533;-58
2022/03/30 03:05:14;;;;;;;38.72;19.67;;;6.40;99.90;;;;;;7238254;32;20120;-59
2022/03/30 03:09:16;;;;;;;36.40;18.98;;;6.40;99.90;;;;;;7238671;32;20547;-59
2022/03/30 03:13:18;;;;;;;39.38;18.98;;;6.30;99.90;;;;;;7236465;32;20188;-59
2022/03/30 03:17:20;;;;;;;37.47;19.92;;;6.20;99.90;;;;;;7235813;32;20121;-60
2022/03/30 03:21:22;;;;;;;38.92;19.17;;;6.20;99.90;;;;;;7243270;32;20478;-60
2022/03/30 03:25:27;;;;;;;35.78;18.30;;;6.20;99.90;;;;;;7240938;32;20207;-60
2022/03/30 03:29:29;;;;;;;35.17;18.95;;;6.10;99.90;;;;;;7236498;32;20204;-58
2022/03/30 03:33:32;;;;;;;36.95;18.90;;;6.10;99.90;;;;;;7237502;32;20314;-61
2022/03/30 03:37:34;;;;;;;35.83;19.17;;;6.00;99.90;;;;;;7236982;32;20242;-59
2022/03/30 03:41:36;;;;;;;39.45;18.45;;;6.00;99.90;;;;;;7236875;32;20448;-59
2022/03/30 03:45:38;;;;;;;37.15;19.08;;;6.00;99.90;;;;;;7237650;32;20211;-58
2022/03/30 03:49:40;;;;;;;41.97;18.80;;;5.90;99.90;;;;;;7237704;32;20143;-59
2022/03/30 03:53:42;;;;;;;35.42;18.87;;;5.80;99.90;;;;;;7238255;32;20265;-60
2022/03/30 03:57:43;;;;;;;37.38;18.95;;;5.80;99.90;;;;;;7237829;32;20104;-61
2022/03/30 04:01:45;;;;;;;40.25;20.10;;;5.60;99.90;;;;;;7243911;32;20104;-60
2022/03/30 04:05:47;;;;;;;39.15;20.77;;;5.50;99.90;;;;;;7242503;32;20127;-59
2022/03/30 04:09:48;;;;;;;38.92;19.95;;;5.50;99.90;;;;;;7249559;32;20108;-59
2022/03/30 04:13:50;;;;;;;41.72;21.50;;;5.50;99.90;;;;;;7243552;32;20104;-59
2022/03/30 04:17:54;;;;;;;37.10;20.25;;;5.40;99.90;;;;;;7243424;32;20096;-59
2022/03/30 04:21:55;;;;;;;39.28;20.42;;;5.40;99.90;;;;;;7244364;32;20127;-59
2022/03/30 04:25:57;;;;;;;38.58;20.08;;;5.40;99.90;;;;;;7236484;32;20123;-59
2022/03/30 04:30:00;;;;;;;42.62;20.58;;;5.40;99.90;;;;;;7241754;32;20188;-58
2022/03/30 04:34:01;;;;;;;36.58;18.67;;;5.30;99.90;;;;;;7243990;32;20567;-58
2022/03/30 04:38:05;;;;;;;41.50;18.87;;;5.30;99.90;;;;;;7242045;32;20232;-60
2022/03/30 04:42:07;;;;;;;39.00;19.75;;;5.30;99.90;;;;;;7243847;32;20215;-57
2022/03/30 04:46:09;;;;;;;40.72;19.42;;;5.20;99.90;;;;;;7241466;32;20209;-57
2022/03/30 04:50:11;;;;;;;41.92;20.08;;;5.20;99.90;;;;;;7242617;32;20109;-60
2022/03/30 04:54:13;;;;;;;40.53;19.77;;;5.10;99.90;;;;;;7236951;32;20100;-60
2022/03/30 04:58:15;;;;;;;43.80;21.55;;;5.10;99.90;;;;;;7243608;32;20220;-61
2022/03/30 05:02:16;;;;;;;41.88;21.00;;;5.00;99.90;;;;;;7241148;32;20101;-61
2022/03/30 05:06:18;;;;;;;42.92;19.92;;;4.90;99.90;;;;;;7241607;32;20113;-61
2022/03/30 05:10:20;;;;;;;42.30;20.58;;;5.00;99.90;;;;;;7244570;32;20204;-61
2022/03/30 05:14:21;;;;;;;44.20;20.33;;;4.90;99.90;;;;;;7240599;32;20279;-62
2022/03/30 05:18:23;;;;;;;43.87;19.92;;;5.00;99.90;;;;;;7239972;32;20104;-62
2022/03/30 05:22:25;;;;;;;46.50;20.45;;;4.90;99.90;;;;;;7241295;32;20096;-61
2022/03/30 05:26:28;;;;;;;40.00;19.83;;;4.80;99.90;;;;;;7242165;32;20150;-61
2022/03/30 05:30:30;;;;;;;43.97;19.85;;;4.90;99.90;;;;;;7246320;32;20100;-61
2022/03/30 05:34:32;;;;;;;43.90;20.90;;;4.80;99.90;;;;;;7237062;32;20673;-63
2022/03/30 05:38:34;;;;;;;39.85;19.42;;;4.90;99.90;;;;;;7239368;32;20693;-60
2022/03/30 05:42:35;;;;;;;44.50;19.52;;;4.70;99.90;;;;;;7240388;32;20520;-62
2022/03/30 05:46:37;;;;;;;40.97;20.33;;;4.70;99.90;;;;;;7238805;32;20104;-63
2022/03/30 05:50:39;;;;;;;36.15;19.50;;;4.60;99.90;;;;;;7239721;32;20112;-62
2022/03/30 05:54:41;;;;;;;43.22;20.48;;;4.60;99.90;;;;;;7239906;32;20586;-60
2022/03/30 05:58:42;;;;;;;39.88;20.15;;;4.50;99.90;;;;;;7238173;32;20105;-62
2022/03/30 06:02:44;;;;;;;43.38;20.67;;;4.60;99.90;;;;;;7239348;32;20204;-62
2022/03/30 06:06:46;;;;;;;49.97;23.92;;;4.70;99.90;;;;;;7240639;32;20105;-60
2022/03/30 06:10:49;;;;;;;40.30;20.20;;;4.70;99.90;;;;;;7238752;32;20100;-62
2022/03/30 06:14:52;;;;;;;38.08;20.25;;;4.80;99.90;;;;;;7231722;32;20451;-60
2022/03/30 06:18:54;;;;;;;40.45;19.75;;;4.80;99.90;;;;;;7233887;32;20183;-59
2022/03/30 06:22:56;;;;;;;47.35;20.25;;;4.90;99.90;;;;;;7235451;32;20142;-60
2022/03/30 06:26:58;;;;;;;42.85;20.23;;;4.90;99.90;;;;;;7235111;32;20524;-61
2022/03/30 06:31:00;;;;;;;46.58;21.10;;;5.00;99.90;;;;;;7235038;32;20100;-62
2022/03/30 06:35:03;;;;;;;40.22;20.50;;;5.00;99.90;;;;;;7236605;32;20219;-61
2022/03/30 06:39:05;;;;;;;48.40;20.73;;;5.00;99.90;;;;;;7234410;32;20190;-61
2022/03/30 06:43:07;;;;;;;46.88;21.35;;;5.00;99.90;;;;;;7235349;32;20218;-60
2022/03/30 06:47:09;;;;;;;40.63;20.17;;;5.10;99.90;;;;;;7241620;32;20117;-61
2022/03/30 06:51:13;;;;;;;39.65;20.98;;;5.10;99.90;;;;;;7242461;32;20196;-61
2022/03/30 06:55:15;;;;;;;47.72;20.67;;;5.10;99.90;;;;;;7239993;32;20104;-61
2022/03/30 06:59:18;;;;;;;47.42;20.80;;;4.90;99.90;;;;;;7242720;32;20249;-60
2022/03/30 07:03:22;;;;;;;44.33;21.90;;;5.00;99.90;;;;;;7239455;32;20242;-60
2022/03/30 07:11:44;;;;;;;47.22;22.13;;;5.10;99.90;;;;;;7238047;32;20104;-60
2022/03/30 07:15:46;;;;;;;41.10;21.35;;;5.20;99.90;;;;;;7240772;32;20219;-62
2022/03/30 07:19:48;;;;;;;43.05;20.52;;;5.30;99.90;;;;;;7241936;32;20252;-60
2022/03/30 07:23:50;;;;;;;53.20;20.23;;;5.50;99.90;;;;;;7238810;32;20206;-60
2022/03/30 07:27:54;;;;;;;44.65;22.55;;;5.50;99.90;;;;;;7238115;32;20120;-60
2022/03/30 07:31:56;;;;;;;46.65;20.95;;;5.60;99.90;;;;;;7242906;32;20127;-60
2022/03/30 07:35:58;;;;;;;40.92;20.42;;;5.80;99.90;;;;;;7245456;32;20590;-61
2022/03/30 07:40:00;;;;;;;41.47;21.52;;;5.80;99.90;;;;;;7243480;32;20210;-60
2022/03/30 07:44:02;;;;;;;42.53;21.62;;;6.10;99.90;;;;;;7244002;32;20571;-61
2022/03/30 07:48:06;;;;;;;37.97;19.40;;;6.20;99.90;;;;;;7243526;32;20608;-62
2022/03/30 07:52:07;;;;;;;42.38;19.67;;;6.30;99.90;;;;;;7239331;32;20380;-62
2022/03/30 07:56:09;;;;;;;40.47;20.95;;;6.40;99.90;;;;;;7241000;32;20860;-61
2022/03/30 08:00:16;;;;;;;44.88;19.62;;;6.50;99.90;;;;;;7243373;32;20108;-60
2022/03/30 08:04:17;;;;;;;34.40;16.83;;;6.80;99.90;;;;;;7242086;32;20108;-62
2022/03/30 08:08:19;;;;;;;33.72;17.55;;;7.30;99.90;;;;;;7243313;32;20104;-61
2022/03/30 08:12:21;;;;;;;34.03;15.57;;;7.70;99.90;;;;;;7243355;32;20646;-61
2022/03/30 08:16:23;;;;;;;29.25;16.15;;;8.50;99.90;;;;;;7243814;32;20143;-60
2022/03/30 08:24:46;;;;;;;30.23;15.30;;;9.50;99.90;;;;;;7243252;32;20127;-60
2022/03/30 08:28:48;;;;;;;31.50;14.85;;;9.90;99.90;;;;;;7242651;32;20171;-62
2022/03/30 08:32:50;;;;;;;25.58;14.27;;;10.00;99.90;;;;;;7238924;32;20229;-61
2022/03/30 08:36:51;;;;;;;25.37;14.75;;;10.50;99.90;;;;;;7240042;32;20122;-62
2022/03/30 08:40:56;;;;;;;25.92;13.88;;;10.50;99.90;;;;;;7242453;32;20143;-63
2022/03/30 08:44:59;;;;;;;25.45;14.52;;;11.00;99.90;;;;;;7245377;32;20104;-60
2022/03/30 08:49:01;;;;;;;26.77;14.10;;;10.90;99.90;;;;;;7242040;32;20108;-61
2022/03/30 08:53:04;;;;;;;23.60;13.60;;;11.00;99.90;;;;;;7232866;32;20108;-62
2022/03/30 08:57:07;;;;;;;29.05;15.55;;;10.90;99.90;;;;;;7236830;32;20101;-61
2022/03/30 09:01:11;;;;;;;32.28;15.10;;;10.80;99.90;;;;;;7241421;32;20807;-61
2022/03/30 09:05:15;;;;;;;33.33;15.82;;;11.10;99.90;;;;;;7242386;32;20255;-62
2022/03/30 09:09:33;;;;;;;21.48;13.52;;;11.40;99.90;;;;;;7242678;32;20119;-62
2022/03/30 09:13:35;;;;;;;;;;;11.80;99.90;;;;;;7243018;32;20105;-61
2022/03/30 09:17:38;;;;;;;24.55;13.40;;;11.70;99.90;;;;;;7242748;32;20030;-62
2022/03/30 09:21:58;;;;;;;26.15;14.45;;;11.90;99.90;;;;;;7241242;32;20132;-63
2022/03/30 09:26:00;;;;;;;22.83;12.80;;;11.90;99.90;;;;;;7241295;32;20207;-61
2022/03/30 09:30:03;;;;;;;27.15;13.45;;;12.20;99.90;;;;;;7240231;32;20135;-61
2022/03/30 09:34:06;;;;;;;22.40;13.98;;;11.70;99.90;;;;;;7243598;32;20485;-61
2022/03/30 09:38:11;;;;;;;22.02;12.80;;;11.90;99.90;;;;;;7241852;32;20105;-60
2022/03/30 09:42:14;;;;;;;22.85;12.63;;;11.90;99.90;;;;;;7240158;32;20104;-61
2022/03/30 09:46:16;;;;;;;21.75;12.37;;;12.20;99.90;;;;;;7243869;32;20238;-61
2022/03/30 09:50:28;;;;;;;18.70;12.02;;;12.90;99.90;;;;;;7241328;32;20156;-61
2022/03/30 09:54:47;;;;;;;22.27;12.85;;;13.60;99.90;;;;;;7241193;32;20108;-62
2022/03/30 09:58:57;;;;;;;17.62;11.32;;;13.50;99.90;;;;;;7240606;32;20101;-61
2022/03/30 10:02:59;;;;;;;24.55;12.35;;;13.40;99.90;;;;;;7233277;32;20131;-61
2022/03/30 10:07:03;;;;;;;22.33;12.25;;;13.00;99.90;;;;;;7235182;32;20463;-60
2022/03/30 10:11:05;;;;;;;20.95;12.27;;;13.10;99.90;;;;;;7237444;32;20548;-61
2022/03/30 10:15:08;;;;;;;25.30;11.82;;;13.40;99.90;;;;;;7232162;32;20127;-60
2022/03/30 10:19:10;;;;;;;20.90;11.88;;;14.00;98.90;;;;;;7243947;32;20225;-61
2022/03/30 10:23:51;;;;;;;22.05;11.30;;;14.30;97.20;;;;;;7243019;32;20474;-60
2022/03/30 10:28:08;;;;;;;19.77;10.68;;;13.80;99.10;;;;;;7218863;32;20226;-61
2022/03/30 10:32:21;;;;;;;17.20;10.23;;;14.30;96.50;;;;;;7232649;32;20096;-59
2022/03/30 10:36:26;;;;;;;15.77;9.50;;;13.30;94.60;;;;;;7245818;32;20108;-62
2022/03/30 10:40:28;;;;;;;17.52;9.73;;;14.40;95.50;;;;;;7246511;32;20096;-61
2022/03/30 10:44:46;;;;;;;23.45;11.30;;;15.00;92.60;;;;;;7244464;32;20131;-59
2022/03/30 10:48:48;;;;;;;15.98;10.32;;;15.30;90.70;;;;;;7247910;32;20135;-61
2022/03/30 10:52:50;;;;;;;13.60;9.82;;;15.50;90.60;;;;;;7242503;32;20179;-61
2022/03/30 10:56:52;;;;;;;18.70;10.30;;;14.70;87.80;;;;;;7245979;32;20445;-60
2022/03/30 11:01:12;;;;;;;18.20;10.35;;;14.30;92.40;;;;;;7244677;32;20143;-61
2022/03/30 11:05:16;;;;;;;20.95;10.30;;;14.90;91.50;;;;;;7244100;32;20509;-60
2022/03/30 11:09:23;;;;;;;16.00;9.18;;;14.30;90.40;;;;;;7239415;32;20179;-62
2022/03/30 11:13:26;;;;;;;19.20;9.73;;;14.60;93.00;;;;;;7226948;32;20209;-60
2022/03/30 11:17:40;;;;;;;17.17;9.80;;;13.90;92.20;;;;;;7233730;32;20123;-61
2022/03/30 11:22:09;;;;;;;16.62;9.30;;;13.50;93.80;;;;;;7243254;32;20732;-60
2022/03/30 11:26:10;;;;;;;17.83;9.40;;;13.40;93.70;;;;;;7239720;32;20825;-61
2022/03/30 11:30:19;;;;;;;13.07;8.90;;;13.00;93.10;;;;;;7242237;32;21299;-60
2022/03/30 11:34:32;;;;;;;18.92;9.10;;;12.80;95.00;;;;;;7239101;32;20214;-60
2022/03/30 11:38:40;;;;;;;16.37;8.65;;;12.60;96.30;;;;;;7235962;32;20446;-57
2022/03/30 11:42:51;;;;;;;15.18;9.20;;;12.80;96.10;;;;;;7242774;32;20136;-60
2022/03/30 11:46:54;;;;;;;15.07;9.10;;;12.90;96.00;;;;;;7240889;32;20235;-61
2022/03/30 11:50:58;;;;;;;15.50;9.63;;;13.10;96.20;;;;;;7243341;32;20839;-60
2022/03/30 11:55:00;;;;;;;16.80;9.85;;;13.30;96.10;;;;;;7237569;32;20105;-55
2022/03/30 11:59:01;;;;;;;16.17;9.00;;;13.50;94.00;;;;;;7239448;32;20123;-61
2022/03/30 12:03:03;;;;;;;13.57;9.35;;;13.50;94.20;;;;;;7239504;32;20180;-60
2022/03/30 12:07:06;;;;;;;15.52;9.02;;;14.00;92.70;;;;;;7235499;32;20261;-57
2022/03/30 12:11:08;;;;;;;17.67;9.80;;;14.00;93.10;;;;;;7239283;32;20162;-57
2022/03/30 12:15:18;;;;;;;13.82;8.55;;;13.20;93.30;;;;;;7239435;32;20119;-62
2022/03/30 12:19:19;;;;;;;20.33;9.38;;;13.10;94.30;;;;;;7239409;32;20100;-61
2022/03/30 12:23:21;;;;;;;15.00;8.60;;;12.60;94.50;;;;;;7239884;32;20219;-61
2022/03/30 12:27:25;;;;;;;15.63;8.40;;;12.80;95.50;;;;;;7241580;32;20468;-60
2022/03/30 12:31:39;;;;;;;16.75;9.30;;;13.30;95.70;;;;;;7231700;32;20112;-65
2022/03/30 12:35:41;;;;;;;14.40;9.00;;;13.60;95.20;;;;;;7231738;32;20195;-64
2022/03/30 12:39:46;;;;;;;13.73;8.90;;;13.10;94.20;;;;;;7243557;32;20112;-64
2022/03/30 12:44:00;;;;;;;15.50;8.65;;;13.00;94.00;;;;;;7242107;32;20101;-65
2022/03/30 12:48:09;;;;;;;13.65;9.00;;;13.10;95.30;;;;;;7243883;32;20191;-64
2022/03/30 12:52:16;;;;;;;13.93;9.57;;;13.60;93.50;;;;;;7243549;32;20192;-64
2022/03/30 12:56:21;;;;;;;14.95;9.05;;;13.50;93.50;;;;;;7241648;32;20108;-63
2022/03/30 13:00:35;;;;;;;15.38;9.00;;;12.80;95.00;;;;;;7235704;32;20096;-63
2022/03/30 13:04:47;;;;;;;17.10;10.05;;;12.80;96.30;;;;;;7232390;32;20159;-63
2022/03/30 13:09:06;;;;;;;13.23;8.48;;;13.00;94.70;;;;;;7230757;32;20156;-62
2022/03/30 13:13:08;;;;;;;14.93;8.63;;;13.20;92.70;;;;;;7233320;32;20125;-63
2022/03/30 13:17:10;;;;;;;14.70;9.63;;;13.50;91.60;;;;;;7242006;32;20218;-64
2022/03/30 13:21:17;;;;;;;16.87;9.45;;;13.80;93.30;;;;;;7243841;32;20105;-64
2022/03/30 13:25:35;;;;;;;14.75;8.73;;;13.60;90.80;;;;;;7239126;32;20105;-64
2022/03/30 13:29:37;;;;;;;15.18;10.38;;;13.90;93.10;;;;;;7241847;32;20134;-63
2022/03/30 13:33:38;;;;;;;15.00;10.23;;;13.60;92.30;;;;;;7229680;32;20461;-62
2022/03/30 13:37:40;;;;;;;13.10;9.27;;;13.40;92.00;;;;;;7237127;32;20174;-64
2022/03/30 13:41:42;;;;;;;13.95;8.57;;;12.80;92.70;;;;;;7236531;32;20135;-65
2022/03/30 13:45:44;;;;;;;16.23;9.15;;;13.00;90.20;;;;;;7238503;32;20513;-63
2022/03/30 13:49:47;;;;;;;13.13;9.25;;;12.60;90.40;;;;;;7237483;32;20223;-64
2022/03/30 13:53:51;;;;;;;16.30;9.85;;;13.10;92.40;;;;;;7236488;32;20104;-64
2022/03/30 13:57:52;;;;;;;16.42;10.82;;;13.40;93.70;;;;;;7242714;32;20104;-65
2022/03/30 14:01:54;;;;;;;14.70;10.60;;;13.30;94.20;;;;;;7242819;32;20732;-64
2022/03/30 14:05:56;;;;;;;14.90;9.27;;;12.90;93.50;;;;;;7241853;32;20149;-65
2022/03/30 14:09:59;;;;;;;15.10;9.82;;;13.10;95.50;;;;;;7239649;32;20123;-65
2022/03/30 14:14:01;;;;;;;17.55;9.93;;;13.20;94.00;;;;;;7231581;32;20201;-64
2022/03/30 14:18:03;;;;;;;20.08;11.35;;;13.40;94.50;;;;;;7232848;32;20234;-63
2022/03/30 14:22:05;;;;;;;16.48;11.05;;;13.30;93.70;;;;;;7229832;32;20135;-64
2022/03/30 14:26:07;;;;;;;21.52;12.48;;;13.70;93.60;;;;;;7237800;32;20286;-64
2022/03/30 14:30:10;;;;;;;15.85;10.50;;;13.60;91.00;;;;;;7238506;32;20093;-64
2022/03/30 14:34:11;;;;;;;16.40;11.35;;;13.60;91.40;;;;;;7236848;32;20166;-63
2022/03/30 14:38:15;;;;;;;18.85;10.88;;;13.50;92.40;;;;;;7241057;32;20128;-63
2022/03/30 14:42:17;;;;;;;16.17;10.32;;;13.80;93.50;;;;;;7237439;32;20127;-64
2022/03/30 14:46:18;;;;;;;15.63;10.75;;;13.80;91.80;;;;;;7239300;32;20104;-63
2022/03/30 14:50:20;;;;;;;16.15;10.13;;;13.50;92.30;;;;;;7235630;32;20282;-65
2022/03/30 14:54:22;;;;;;;15.43;10.23;;;13.20;90.70;;;;;;7239693;32;20227;-65
2022/03/30 14:58:23;;;;;;;15.93;10.55;;;13.10;92.90;;;;;;7236702;32;20131;-63
2022/03/30 15:02:26;;;;;;;17.33;10.50;;;12.60;92.90;;;;;;7234176;32;20229;-63
2022/03/30 15:06:27;;;;;;;17.12;10.70;;;12.50;94.50;;;;;;7232776;32;20162;-64
2022/03/30 15:10:29;;;;;;;19.75;9.55;;;12.40;94.90;;;;;;7236538;32;20184;-64
2022/03/30 15:14:31;;;;;;;13.32;9.38;;;12.40;93.40;;;;;;7241092;32;20123;-62
2022/03/30 15:18:33;;;;;;;12.10;9.32;;;12.10;94.20;;;;;;7224654;32;20232;-61
2022/03/30 15:22:35;;;;;;;15.02;9.70;;;12.10;95.60;;;;;;7240902;32;20101;-61
2022/03/30 15:26:37;;;;;;;13.57;9.52;;;11.90;95.80;;;;;;7225819;32;20132;-60
2022/03/30 15:30:40;;;;;;;15.30;9.73;;;12.00;96.00;;;;;;7237485;32;20108;-61
2022/03/30 15:34:42;;;;;;;14.05;8.45;;;11.90;96.00;;;;;;7242413;32;20254;-61
2022/03/30 15:38:44;;;;;;;13.07;9.05;;;12.00;96.80;;;;;;7237228;32;20497;-61
2022/03/30 15:42:47;;;;;;;14.77;9.13;;;11.90;97.20;;;;;;7242189;32;20100;-62
2022/03/30 15:46:49;;;;;;;13.23;9.05;;;11.90;97.70;;;;;;7242825;32;20104;-63
2022/03/30 15:50:51;;;;;;;16.00;9.80;;;11.90;97.60;;;;;;7242391;32;20129;-63
2022/03/30 15:54:52;;;;;;;14.23;8.38;;;11.90;98.20;;;;;;7242548;32;20730;-63
2022/03/30 15:58:54;;;;;;;13.52;8.70;;;11.90;97.10;;;;;;7245408;32;20126;-62
2022/03/30 16:02:56;;;;;;;15.43;8.75;;;11.70;97.70;;;;;;7245430;32;20226;-62
2022/03/30 16:06:59;;;;;;;11.43;7.62;;;11.50;99.90;;;;;;7245127;32;20239;-61
2022/03/30 16:15:21;;;;;;;11.75;6.97;;;11.30;99.90;;;;;;7247581;32;20118;-62
2022/03/30 16:19:23;;;;;;;11.73;6.35;;;11.20;99.90;;;;;;7242163;32;20296;-60
2022/03/30 16:23:25;;;;;;;12.80;7.22;;;11.10;99.90;;;;;;7242796;32;20425;-60
2022/03/30 16:27:27;;;;;;;11.02;5.87;;;11.00;99.90;;;;;;7240861;32;20462;-60
2022/03/30 16:31:34;;;;;;;11.68;7.05;;;11.00;99.90;;;;;;7244151;32;20187;-63
2022/03/30 16:35:38;;;;;;;14.07;6.65;;;11.00;99.90;;;;;;7244013;32;20116;-60
2022/03/30 16:39:39;;;;;;;10.60;6.90;;;11.00;99.90;;;;;;7243341;32;20174;-62
2022/03/30 16:43:41;;;;;;;14.23;7.37;;;11.00;99.90;;;;;;7242411;32;20250;-62
2022/03/30 16:47:43;;;;;;;13.35;6.75;;;10.80;99.90;;;;;;7248680;32;20187;-62
2022/03/30 16:51:46;;;;;;;14.70;7.65;;;10.70;99.90;;;;;;7247248;32;20131;-60
2022/03/30 16:55:47;;;;;;;14.10;7.32;;;10.70;99.90;;;;;;7243937;32;20109;-64
2022/03/30 16:59:50;;;;;;;12.88;7.03;;;10.60;99.90;;;;;;7246519;32;20159;-62
2022/03/30 17:03:52;;;;;;;11.73;6.43;;;10.60;99.90;;;;;;7241241;32;20108;-61
2022/03/30 17:12:14;;;;;;;10.88;6.68;;;10.50;99.90;;;;;;7240047;32;20159;-62
2022/03/30 17:16:15;;;;;;;12.77;6.93;;;10.30;99.90;;;;;;7240447;32;20152;-63
2022/03/30 17:20:18;;;;;;;11.85;6.60;;;10.30;99.90;;;;;;7238963;32;20531;-60
2022/03/30 17:24:20;;;;;;;12.37;6.72;;;10.20;99.90;;;;;;7242159;32;20159;-60
2022/03/30 17:28:21;;;;;;;10.00;6.18;;;10.10;99.90;;;;;;7239127;32;20143;-60
2022/03/30 17:32:23;;;;;;;12.57;5.90;;;10.00;99.90;;;;;;7242572;32;20664;-64
2022/03/30 17:36:25;;;;;;;11.75;6.12;;;10.00;99.90;;;;;;7244271;32;20215;-61
2022/03/30 17:40:28;;;;;;;10.30;5.70;;;9.90;99.90;;;;;;7245054;32;20172;-63
2022/03/30 17:44:30;;;;;;;13.75;6.40;;;9.90;99.90;;;;;;7233231;32;20192;-62
2022/03/30 17:52:53;;;;;;;13.35;6.55;;;9.80;99.90;;;;;;7237876;32;20108;-61
2022/03/30 17:56:56;;;;;;;10.88;6.85;;;9.70;99.90;;;;;;7238733;32;20131;-60
2022/03/30 18:01:03;;;;;;;15.52;6.35;;;9.60;99.90;;;;;;7231474;32;20627;-61
2022/03/30 18:05:05;;;;;;;13.63;7.47;;;9.50;99.90;;;;;;7242759;32;20180;-61
2022/03/30 18:09:12;;;;;;;16.58;7.75;;;9.50;99.90;;;;;;7233050;32;20220;-61
2022/03/30 18:13:18;;;;;;;16.17;8.88;;;9.30;99.90;;;;;;7239020;32;20119;-60
2022/03/30 18:17:22;;;;;;;15.32;9.10;;;9.30;99.90;;;;;;7242292;32;20101;-60
2022/03/30 18:21:25;;;;;;;15.00;8.05;;;9.10;99.90;;;;;;7239782;32;20364;-62
2022/03/30 18:25:27;;;;;;;13.75;7.37;;;9.10;99.90;;;;;;7241797;32;20208;-62
2022/03/30 18:29:28;;;;;;;15.95;8.55;;;9.00;99.90;;;;;;7236981;32;20207;-60
2022/03/30 18:33:30;;;;;;;14.65;8.52;;;9.00;99.90;;;;;;7239423;32;20128;-60
2022/03/30 18:37:32;;;;;;;17.58;8.73;;;8.80;99.90;;;;;;7241446;32;20228;-61
2022/03/30 18:41:34;;;;;;;14.75;9.57;;;8.80;99.90;;;;;;7237661;32;20351;-60
2022/03/30 18:45:36;;;;;;;18.42;9.23;;;8.70;99.90;;;;;;7241901;32;20104;-60
2022/03/30 18:49:38;;;;;;;19.02;9.48;;;8.50;99.90;;;;;;7230618;32;20104;-61
2022/03/30 18:53:40;;;;;;;13.80;8.52;;;8.40;99.90;;;;;;7239790;32;20493;-62
2022/03/30 18:57:41;;;;;;;19.65;8.63;;;8.40;99.90;;;;;;7241244;32;20127;-60
2022/03/30 19:01:43;;;;;;;17.00;8.27;;;8.20;99.90;;;;;;7242975;32;20317;-61
2022/03/30 19:05:46;;;;;;;17.30;9.05;;;8.20;99.90;;;;;;7244754;32;20096;-62
2022/03/30 19:09:47;;;;;;;16.40;8.77;;;8.10;99.90;;;;;;7245776;32;20215;-60
2022/03/30 19:13:49;;;;;;;19.92;9.45;;;8.00;99.90;;;;;;7235893;32;20192;-59
2022/03/30 19:17:51;;;;;;;18.73;9.02;;;7.90;99.90;;;;;;7236746;32;20475;-62
2022/03/30 19:21:53;;;;;;;15.85;9.00;;;7.90;99.90;;;;;;7240724;32;20425;-62
2022/03/30 19:25:54;;;;;;;19.45;10.57;;;7.90;99.90;;;;;;7247673;32;20223;-63
2022/03/30 19:29:56;;;;;;;17.95;9.15;;;7.80;99.90;;;;;;7244813;32;20151;-60
2022/03/30 19:33:58;;;;;;;17.02;8.68;;;7.70;99.90;;;;;;7247848;32;20170;-60
2022/03/30 19:38:01;;;;;;;16.02;8.60;;;7.70;99.90;;;;;;7246400;32;20670;-60
2022/03/30 19:42:02;;;;;;;16.92;8.82;;;7.70;99.90;;;;;;7246249;32;20140;-60
2022/03/30 19:46:05;;;;;;;15.10;9.02;;;7.60;99.90;;;;;;7244254;32;20120;-63
2022/03/30 19:50:12;;;;;;;19.12;8.60;;;7.60;99.90;;;;;;7247349;32;20222;-60
2022/03/30 19:54:14;;;;;;;17.65;9.65;;;7.50;99.90;;;;;;7244558;32;20217;-59
2022/03/30 19:58:18;;;;;;;16.15;8.50;;;7.50;99.90;;;;;;7244283;32;20410;-60
2022/03/30 20:02:20;;;;;;;15.38;8.60;;;7.50;99.90;;;;;;7240885;32;20740;-60
2022/03/30 20:06:22;;;;;;;16.30;8.70;;;7.40;99.90;;;;;;7245768;32;20100;-61
2022/03/30 20:10:24;;;;;;;15.52;8.70;;;7.40;99.90;;;;;;7243261;32;20227;-60
2022/03/30 20:14:26;;;;;;;21.20;9.07;;;7.40;99.90;;;;;;7239879;32;20105;-62
2022/03/30 20:18:30;;;;;;;16.23;8.32;;;7.40;99.90;;;;;;7243869;32;20368;-61
2022/03/30 20:22:33;;;;;;;20.75;9.68;;;7.30;99.90;;;;;;7240163;32;20215;-60
2022/03/30 20:26:35;;;;;;;14.50;8.13;;;7.20;99.90;;;;;;7241199;32;20508;-61
2022/03/30 20:30:36;;;;;;;17.12;9.07;;;7.20;99.90;;;;;;7240389;32;20104;-60
2022/03/30 20:34:38;;;;;;;19.58;8.98;;;7.20;99.90;;;;;;7240683;32;20119;-59
2022/03/30 20:38:41;;;;;;;15.90;8.77;;;7.20;99.90;;;;;;7235948;32;20109;-59
2022/03/30 20:43:03;;;;;;;13.90;7.75;;;7.10;99.90;;;;;;7242246;32;20096;-60
2022/03/30 20:47:05;;;;;;;16.33;8.05;;;7.20;99.90;;;;;;7245098;32;20116;-60
2022/03/30 20:51:09;;;;;;;20.23;9.20;;;7.20;99.90;;;;;;7243854;32;20231;-59
2022/03/30 20:55:10;;;;;;;16.10;8.57;;;7.20;99.90;;;;;;7239802;32;20108;-60
2022/03/30 20:59:12;;;;;;;18.77;8.18;;;7.10;99.90;;;;;;7242633;32;20207;-60
2022/03/30 21:03:14;;;;;;;17.65;8.52;;;7.10;99.90;;;;;;7238920;32;20577;-61
2022/03/30 21:07:16;;;;;;;14.20;8.60;;;7.10;99.90;;;;;;7242267;32;20120;-59
2022/03/30 21:11:18;;;;;;;15.02;7.93;;;7.10;99.90;;;;;;7241467;32;20579;-62
2022/03/30 21:15:20;;;;;;;17.08;8.43;;;7.10;99.90;;;;;;7242727;32;20127;-62